Time;durP1;ratioP1;P1;durP2;ratioP2;P2;SDS_P1;SDS_P2;PMS_P1;PMS_P2;Temp;Humidity;BMP_temperature;BMP_pressure;BME280_temperature;BME280_humidity;BME280_pressure;Samples;Min_cycle;Max_cycle;Signal;HPM_P1;HPM_P2
2022/10/21 00:01:37;;;;;;;50.88;31.70;;;;;;;12.52;100.00;100119.50;5047056;28;20057;-74
2022/10/21 00:04:05;;;;;;;43.75;30.58;;;;;;;12.49;100.00;100095.78;5048868;28;20094;-73
2022/10/21 00:06:31;;;;;;;44.90;30.00;;;;;;;12.45;100.00;100073.84;5046029;28;20049;-74
2022/10/21 00:08:58;;;;;;;46.72;29.27;;;;;;;12.50;100.00;100071.78;5045267;28;20053;-74
2022/10/21 00:11:24;;;;;;;47.00;30.30;;;;;;;12.47;100.00;100055.16;5044051;28;20045;-75
2022/10/21 00:13:51;;;;;;;45.97;30.30;;;;;;;12.48;100.00;100039.13;5046524;28;20067;-75
2022/10/21 00:16:18;;;;;;;45.67;30.67;;;;;;;12.48;100.00;100036.47;5044893;28;20049;-74
2022/10/21 00:18:47;;;;;;;47.55;31.23;;;;;;;12.39;100.00;100012.31;5048273;28;20140;-76
2022/10/21 00:21:20;;;;;;;45.03;28.55;;;;;;;12.43;100.00;100037.72;5046206;28;20048;-76
2022/10/21 00:23:48;;;;;;;41.13;28.23;;;;;;;12.46;100.00;100043.69;5045584;28;20052;-77
2022/10/21 00:26:16;;;;;;;50.38;31.23;;;;;;;12.48;100.00;100046.25;5042808;28;20040;-76
2022/10/21 00:28:43;;;;;;;47.08;30.40;;;;;;;12.49;100.00;100059.44;5045711;28;20049;-75
2022/10/21 00:31:12;;;;;;;52.90;32.05;;;;;;;12.45;100.00;100047.28;5045836;28;20049;-76
2022/10/21 00:33:39;;;;;;;54.65;33.10;;;;;;;12.37;100.00;100046.91;5044788;28;20572;-78
2022/10/21 00:36:06;;;;;;;52.97;32.47;;;;;;;12.48;100.00;100057.72;5030219;28;20048;-76
2022/10/21 00:38:34;;;;;;;53.38;32.78;;;;;;;12.46;100.00;100054.31;5042378;28;20049;-76
2022/10/21 00:41:01;;;;;;;52.35;33.13;;;;;;;12.48;100.00;100065.69;5042728;28;20087;-77
2022/10/21 00:43:29;;;;;;;55.83;32.90;;;;;;;12.47;100.00;100049.84;5046476;28;20048;-77
2022/10/21 00:46:03;;;;;;;46.78;29.83;;;;;;;12.33;100.00;100036.56;5047002;28;20045;-77
2022/10/21 00:48:37;;;;;;;49.67;29.52;;;;;;;12.45;100.00;100049.94;5045500;28;20049;-77
2022/10/21 00:51:13;;;;;;;46.45;29.15;;;;;;;12.52;100.00;100047.78;5046063;28;20051;-77
2022/10/21 00:53:44;;;;;;;49.47;32.15;;;;;;;12.40;100.00;100027.28;5050146;28;20053;-76
2022/10/21 00:56:19;;;;;;;45.00;30.48;;;;;;;12.54;100.00;100056.53;5048349;28;20040;-77
2022/10/21 00:58:47;;;;;;;43.97;29.90;;;;;;;12.52;100.00;100058.41;5044465;28;20393;-76
2022/10/21 01:01:14;;;;;;;46.95;30.27;;;;;;;12.38;100.00;100023.88;5045570;28;20572;-77
2022/10/21 01:03:46;;;;;;;51.42;32.13;;;;;;;12.39;100.00;100021.13;5043972;28;20056;-76
2022/10/21 01:06:15;;;;;;;48.70;31.25;;;;;;;12.32;100.00;100003.84;5045518;28;20127;-78
2022/10/21 01:08:42;;;;;;;54.33;32.63;;;;;;;12.53;100.00;100037.06;5050259;28;20148;-75
2022/10/21 01:11:13;;;;;;;50.10;29.83;;;;;;;12.44;100.00;100020.81;5044074;28;20041;-77
2022/10/21 01:13:53;;;;;;;45.38;29.58;;;;;;;12.61;100.00;100034.78;5045851;28;20055;-77
2022/10/21 01:16:26;;;;;;;48.53;30.38;;;;;;;12.58;100.00;100018.22;5043149;28;20045;-74
2022/10/21 01:19:19;;;;;;;55.85;32.67;;;;;;;12.60;100.00;100019.78;5047983;28;20056;-74
2022/10/21 01:21:54;;;;;;;45.22;29.55;;;;;;;12.57;100.00;100021.81;5043725;28;20051;-74
2022/10/21 01:24:29;;;;;;;47.45;30.48;;;;;;;12.56;100.00;100013.00;5044492;28;20140;-75
2022/10/21 01:27:03;;;;;;;48.22;30.90;;;;;;;12.51;100.00;100004.44;5044790;28;20040;-75
2022/10/21 01:29:42;;;;;;;44.40;28.70;;;;;;;12.56;100.00;100006.81;5042917;28;20067;-77
2022/10/21 01:32:17;;;;;;;58.20;35.13;;;;;;;12.51;100.00;99993.81;5043277;28;20132;-76
2022/10/21 01:34:54;;;;;;;50.67;31.67;;;;;;;12.46;100.00;99979.94;5046493;28;20056;-76
2022/10/21 01:37:26;;;;;;;44.17;29.17;;;;;;;12.37;100.00;99958.44;5046406;28;20081;-73
2022/10/21 01:40:16;;;;;;;47.17;30.33;;;;;;;12.37;100.00;99956.63;5042598;28;20053;-77
2022/10/21 01:42:50;;;;;;;;;;;;;;;12.46;100.00;99971.13;5044281;28;20167;-76
2022/10/21 01:45:28;;;;;;;40.85;27.33;;;;;;;12.45;100.00;99956.13;5038772;28;19928;-76
2022/10/21 01:48:28;;;;;;;39.50;26.63;;;;;;;12.44;100.00;99949.13;5047127;28;20068;-75
2022/10/21 01:51:02;;;;;;;43.75;28.45;;;;;;;12.29;100.00;99919.06;5043234;28;20512;-76
2022/10/21 01:53:32;;;;;;;43.05;27.30;;;;;;;12.32;100.00;99916.22;5044897;28;22567;-77
2022/10/21 01:56:03;;;;;;;42.50;27.70;;;;;;;12.45;100.00;99929.59;5041318;28;20045;-77
2022/10/21 01:58:33;;;;;;;42.63;27.17;;;;;;;12.35;100.00;99912.53;5046928;28;20572;-77
2022/10/21 02:01:01;;;;;;;;;;;;;;;12.50;100.00;99933.69;5041983;28;20049;-75
2022/10/21 02:03:33;;;;;;;43.05;27.40;;;;;;;12.48;100.00;99924.94;5047106;28;19960;-77
2022/10/21 02:06:00;;;;;;;42.50;27.13;;;;;;;12.48;100.00;99924.09;5043748;28;20136;-76
2022/10/21 02:08:27;;;;;;;41.28;27.02;;;;;;;12.51;100.00;99931.88;5042380;28;20049;-75
2022/10/21 02:10:57;;;;;;;47.35;28.08;;;;;;;12.49;100.00;99929.31;5044775;28;20131;-75
2022/10/21 02:13:28;;;;;;;45.60;28.05;;;;;;;12.55;100.00;99938.72;5038996;28;20417;-78
2022/10/21 02:16:02;;;;;;;46.75;28.50;;;;;;;12.52;100.00;99954.81;5023109;28;20091;-75
2022/10/21 02:18:28;;;;;;;40.13;26.23;;;;;;;12.38;100.00;99922.97;5045956;28;20051;-76
2022/10/21 02:21:00;;;;;;;40.55;26.38;;;;;;;12.58;100.00;99954.47;5048731;28;20132;-78
2022/10/21 02:23:47;;;;;;;41.20;26.52;;;;;;;12.63;100.00;99942.59;5045486;28;20055;-75
2022/10/21 02:26:14;;;;;;;40.13;26.20;;;;;;;12.66;100.00;99928.25;5031499;28;20184;-76
2022/10/21 02:28:40;;;;;;;46.97;28.15;;;;;;;12.55;100.00;99920.97;5047068;28;20056;-76
2022/10/21 02:31:38;;;;;;;40.22;25.83;;;;;;;12.68;100.00;99949.41;5043685;28;20041;-77
2022/10/21 02:34:09;;;;;;;42.90;27.05;;;;;;;12.74;100.00;99963.19;5042934;28;20064;-75
2022/10/21 02:36:39;;;;;;;46.20;27.48;;;;;;;12.58;100.00;99931.41;5045622;28;20071;-75
2022/10/21 02:39:17;;;;;;;49.10;28.77;;;;;;;12.77;100.00;99948.81;5044888;28;20057;-74
2022/10/21 02:41:47;;;;;;;43.50;27.42;;;;;;;12.80;100.00;99930.91;5053244;28;20079;-75
2022/10/21 02:44:14;;;;;;;41.75;26.05;;;;;;;12.79;100.00;99923.88;5040507;28;20075;-77
2022/10/21 02:46:43;;;;;;;43.05;27.05;;;;;;;12.67;100.00;99902.53;5045517;28;20049;-76
2022/10/21 02:49:10;;;;;;;41.80;26.48;;;;;;;12.82;100.00;99938.78;5046558;28;20047;-77
2022/10/21 02:51:36;;;;;;;44.25;27.60;;;;;;;12.70;100.00;99913.84;5040909;28;20489;-77
2022/10/21 02:54:03;;;;;;;46.53;28.25;;;;;;;12.79;100.00;99929.19;5044511;28;20045;-77
2022/10/21 02:56:30;;;;;;;50.40;29.63;;;;;;;12.78;100.00;99916.84;5042744;28;20053;-78
2022/10/21 02:58:56;;;;;;;41.42;27.52;;;;;;;12.80;100.00;99908.78;5041677;28;20550;-78
2022/10/21 03:01:23;;;;;;;45.22;26.38;;;;;;;12.84;100.00;99926.25;5043492;28;20067;-76
2022/10/21 03:03:50;;;;;;;49.25;29.95;;;;;;;12.82;100.00;99917.50;5040887;28;20132;-77
2022/10/21 03:06:16;;;;;;;47.25;28.48;;;;;;;12.84;100.00;99920.94;5037641;28;20468;-79
2022/10/21 03:08:43;;;;;;;47.83;29.08;;;;;;;12.71;100.00;99909.38;5044374;28;20049;-75
2022/10/21 03:11:09;;;;;;;46.78;26.65;;;;;;;12.85;100.00;99927.94;5042647;28;20053;-78
2022/10/21 03:13:36;;;;;;;45.22;27.77;;;;;;;12.82;100.00;99923.69;5044946;28;20507;-78
2022/10/21 03:16:03;;;;;;;40.10;26.65;;;;;;;12.85;100.00;99918.19;5039981;28;20511;-76
2022/10/21 03:18:29;;;;;;;44.70;27.48;;;;;;;12.88;100.00;99925.09;5041829;28;20053;-76
2022/10/21 03:20:56;;;;;;;49.17;30.33;;;;;;;12.85;100.00;99923.50;5040973;28;20048;-79
2022/10/21 03:23:23;;;;;;;42.45;26.23;;;;;;;12.80;100.00;99908.78;5045481;28;20052;-78
2022/10/21 03:25:49;;;;;;;39.80;26.50;;;;;;;12.75;100.00;99892.31;5041916;28;20056;-77
2022/10/21 03:28:16;;;;;;;39.78;26.88;;;;;;;12.71;100.00;99875.69;5043969;28;20055;-79
2022/10/21 03:30:42;;;;;;;39.08;24.88;;;;;;;12.78;100.00;99890.28;5042470;28;20059;-72
2022/10/21 03:33:09;;;;;;;38.97;25.38;;;;;;;12.65;100.00;99866.31;5048209;28;20055;-75
2022/10/21 03:35:35;;;;;;;40.13;26.42;;;;;;;12.82;100.00;99881.16;5049049;28;20079;-76
2022/10/21 03:38:02;;;;;;;39.90;25.48;;;;;;;12.91;100.00;99891.19;5027527;28;20048;-75
2022/10/21 03:40:29;;;;;;;47.70;28.15;;;;;;;12.92;100.00;99886.72;5046922;28;20068;-78
2022/10/21 03:42:57;;;;;;;38.58;25.63;;;;;;;12.94;100.00;99879.50;5050467;28;20053;-77
2022/10/21 03:45:24;;;;;;;41.53;26.38;;;;;;;12.93;100.00;99885.78;5044229;28;20051;-80
2022/10/21 03:47:51;;;;;;;39.90;26.67;;;;;;;12.96;100.00;99882.94;5050957;28;20389;-76
2022/10/21 03:50:18;;;;;;;40.53;25.23;;;;;;;12.98;100.00;99886.34;5045629;28;20060;-78
2022/10/21 03:52:51;;;;;;;36.80;24.67;;;;;;;12.88;100.00;99862.19;5047113;28;20132;-77
2022/10/21 03:55:19;;;;;;;36.53;24.48;;;;;;;13.02;100.00;99869.25;5045572;28;20060;-79
2022/10/21 03:57:47;;;;;;;36.83;24.30;;;;;;;12.91;100.00;99847.81;5046127;28;20057;-72
2022/10/21 04:00:14;;;;;;;36.10;23.65;;;;;;;13.07;100.00;99872.44;5043276;28;20136;-79
2022/10/21 04:02:41;;;;;;;37.60;24.35;;;;;;;13.09;100.00;99867.88;5048438;28;20052;-76
2022/10/21 04:05:09;;;;;;;46.47;26.02;;;;;;;13.12;100.00;99878.31;5044528;28;20068;-78
2022/10/21 04:07:35;;;;;;;41.15;25.48;;;;;;;13.15;100.00;99870.19;5048498;28;20051;-77
2022/10/21 04:10:03;;;;;;;38.35;23.17;;;;;;;13.05;100.00;99858.44;5045048;28;20048;-78
2022/10/21 04:12:30;;;;;;;40.08;24.92;;;;;;;13.03;100.00;99840.88;5047010;28;20051;-76
2022/10/21 04:14:57;;;;;;;39.58;24.30;;;;;;;13.19;100.00;99863.72;5048789;28;20069;-78
2022/10/21 04:17:23;;;;;;;39.70;23.95;;;;;;;13.23;100.00;99864.34;5051766;28;20483;-77
2022/10/21 04:19:50;;;;;;;41.70;23.40;;;;;;;13.26;100.00;99853.50;5047117;28;20053;-77
2022/10/21 04:22:16;;;;;;;39.88;23.27;;;;;;;13.31;100.00;99857.59;5044928;28;20044;-74
2022/10/21 04:24:43;;;;;;;38.63;22.42;;;;;;;13.30;100.00;99857.69;5047272;28;20485;-78
2022/10/21 04:27:10;;;;;;;41.38;23.33;;;;;;;13.33;100.00;99854.81;5049905;28;20055;-77
2022/10/21 04:29:36;;;;;;;46.97;24.80;;;;;;;13.24;100.00;99831.47;5050933;28;20393;-75
2022/10/21 04:32:03;;;;;;;45.70;24.17;;;;;;;13.38;100.00;99859.84;5049527;28;20048;-78
2022/10/21 04:34:30;;;;;;;44.22;24.48;;;;;;;13.28;100.00;99839.16;5046424;28;20086;-80
2022/10/21 04:36:56;;;;;;;46.20;25.00;;;;;;;13.44;100.00;99859.41;5045859;28;20049;-78
2022/10/21 04:39:29;;;;;;;50.08;24.15;;;;;;;13.48;100.00;99845.81;5032484;28;20049;-77
2022/10/21 04:41:56;;;;;;;42.45;22.55;;;;;;;13.44;100.00;99840.78;5044962;28;20416;-78
2022/10/21 04:44:22;;;;;;;45.20;22.70;;;;;;;13.47;100.00;99852.09;5049122;28;20523;-76
2022/10/21 04:46:49;;;;;;;62.00;25.88;;;;;;;13.50;100.00;99849.22;5045768;28;20482;-74
2022/10/21 04:49:16;;;;;;;44.28;22.33;;;;;;;13.50;100.00;99843.91;5047479;28;20053;-76
2022/10/21 04:51:42;;;;;;;45.88;23.40;;;;;;;13.41;100.00;99835.69;5044560;28;20398;-74
2022/10/21 04:54:09;;;;;;;40.28;20.73;;;;;;;13.50;100.00;99835.06;5053258;28;20045;-79
2022/10/21 04:56:35;;;;;;;44.45;22.90;;;;;;;13.50;100.00;99835.06;5048040;28;21844;-79
2022/10/21 04:59:02;;;;;;;45.42;22.65;;;;;;;13.47;100.00;99835.28;5044283;28;20366;-73
2022/10/21 05:01:29;;;;;;;49.90;25.75;;;;;;;13.44;100.00;99830.16;5047412;28;20053;-81
2022/10/21 05:03:56;;;;;;;55.97;26.48;;;;;;;13.42;100.00;99838.22;5043277;28;20053;-82
2022/10/21 05:06:22;;;;;;;50.83;25.85;;;;;;;13.40;100.00;99828.66;5043791;28;20086;-77
2022/10/21 05:08:49;;;;;;;45.28;23.25;;;;;;;13.32;100.00;99815.88;5046301;28;20056;-75
2022/10/21 05:11:16;;;;;;;43.80;22.17;;;;;;;13.43;100.00;99839.94;5044144;28;20408;-80
2022/10/21 05:13:42;;;;;;;44.80;22.25;;;;;;;13.40;100.00;99834.81;5048595;28;20116;-76
2022/10/21 05:16:09;;;;;;;42.10;22.33;;;;;;;13.36;100.00;99819.19;5042989;28;20159;-77
2022/10/21 05:18:35;;;;;;;42.92;22.65;;;;;;;13.44;100.00;99836.31;5046290;28;20060;-73
2022/10/21 05:21:02;;;;;;;45.97;22.88;;;;;;;13.38;100.00;99815.44;5049390;28;20073;-80
2022/10/21 05:23:29;;;;;;;41.80;22.85;;;;;;;13.44;100.00;99827.50;5049928;28;20048;-79
2022/10/21 05:25:56;;;;;;;44.85;23.15;;;;;;;13.46;100.00;99822.94;5046184;28;20053;-78
2022/10/21 05:28:22;;;;;;;41.15;22.40;;;;;;;13.49;100.00;99825.38;5045658;28;20041;-78
2022/10/21 05:30:49;;;;;;;46.67;22.45;;;;;;;13.33;100.00;99791.00;5046626;28;20047;-80
2022/10/21 05:33:15;;;;;;;47.80;23.98;;;;;;;13.49;100.00;99818.25;5028017;28;20425;-80
2022/10/21 05:35:43;;;;;;;47.22;23.95;;;;;;;13.48;100.00;99805.91;5052113;28;20729;-71
2022/10/21 05:38:09;;;;;;;43.05;22.88;;;;;;;13.39;100.00;99793.22;5063436;28;20046;-75
2022/10/21 05:40:36;;;;;;;42.20;22.73;;;;;;;13.50;100.00;99801.34;5065764;28;20055;-74
2022/10/21 05:43:02;;;;;;;48.50;23.33;;;;;;;13.51;100.00;99812.84;5063359;28;20051;-76
2022/10/21 05:45:29;;;;;;;52.90;25.90;;;;;;;13.51;100.00;99807.53;5062713;28;20390;-78
2022/10/21 05:47:56;;;;;;;59.70;24.70;;;;;;;13.36;100.00;99785.47;5065674;28;20087;-77
2022/10/21 05:50:22;;;;;;;54.05;24.88;;;;;;;13.54;100.00;99828.56;5065247;28;20113;-73
2022/10/21 05:52:49;;;;;;;51.97;24.90;;;;;;;13.52;100.00;99814.53;5057842;28;20044;-74
2022/10/21 05:55:15;;;;;;;63.10;26.27;;;;;;;13.53;100.00;99806.47;5052205;28;20051;-71
2022/10/21 05:57:42;;;;;;;65.80;27.88;;;;;;;13.51;100.00;99808.38;5045361;28;20103;-84
2022/10/21 06:00:10;;;;;;;59.78;26.25;;;;;;;13.48;100.00;99795.28;5043466;28;20072;-83
2022/10/21 06:02:36;;;;;;;64.43;26.33;;;;;;;13.29;100.00;99773.53;5044279;28;20068;-85
2022/10/21 06:05:04;;;;;;;54.30;24.85;;;;;;;13.43;100.00;99801.84;5045476;28;20049;-81
2022/10/21 06:07:30;;;;;;;55.78;25.02;;;;;;;13.40;100.00;99800.25;5046437;28;20037;-83
2022/10/21 06:09:57;;;;;;;68.28;27.30;;;;;;;13.39;100.00;99801.19;5043094;28;20049;-85
2022/10/21 06:12:24;;;;;;;59.97;25.98;;;;;;;13.22;100.00;99769.63;5046515;28;20049;-77
2022/10/21 06:14:51;;;;;;;61.75;25.85;;;;;;;13.36;100.00;99800.59;5061526;28;20045;-72
2022/10/21 06:17:17;;;;;;;54.33;25.40;;;;;;;13.37;100.00;99810.25;5057565;28;20045;-85
2022/10/21 06:19:44;;;;;;;58.10;25.88;;;;;;;13.38;100.00;99812.78;5043963;28;20076;-83
2022/10/21 06:22:16;;;;;;;55.33;24.88;;;;;;;13.36;100.00;99817.41;5050176;28;20080;-72
2022/10/21 06:24:43;;;;;;;47.03;23.08;;;;;;;13.38;100.00;99810.13;5031375;28;20145;-76
2022/10/21 06:27:09;;;;;;;50.70;23.48;;;;;;;13.39;100.00;99817.16;5031435;28;20052;-81
2022/10/21 06:29:36;;;;;;;45.92;22.27;;;;;;;13.36;100.00;99811.22;5044349;28;20055;-86
2022/10/21 06:32:02;;;;;;;49.75;23.05;;;;;;;13.43;100.00;99828.44;5043556;28;20059;-86
2022/10/21 06:34:29;;;;;;;48.05;22.52;;;;;;;13.43;100.00;99825.78;5044180;28;20063;-76
2022/10/21 06:36:56;;;;;;;47.30;23.40;;;;;;;13.44;100.00;99815.06;5040609;28;20059;-83
2022/10/21 06:39:22;;;;;;;49.33;24.75;;;;;;;13.44;100.00;99809.72;5046996;28;20140;-82
2022/10/21 06:41:49;;;;;;;41.28;22.48;;;;;;;13.49;100.00;99823.56;5047173;28;20455;-82
2022/10/21 06:44:16;;;;;;;49.70;22.98;;;;;;;13.45;100.00;99795.47;5050242;28;20048;-78
2022/10/21 06:46:42;;;;;;;48.97;23.52;;;;;;;13.49;100.00;99814.75;5040385;28;20064;-75
2022/10/21 06:49:09;;;;;;;42.53;22.55;;;;;;;13.43;100.00;99800.03;5041870;28;20045;-85
2022/10/21 06:51:35;;;;;;;44.70;22.60;;;;;;;13.49;100.00;99818.25;5045217;28;20212;-74
2022/10/21 06:54:02;;;;;;;43.55;21.60;;;;;;;13.31;100.00;99788.44;5054928;28;20594;-72
2022/10/21 06:56:30;;;;;;;43.00;21.73;;;;;;;13.51;100.00;99821.66;5061347;28;20057;-78
2022/10/21 06:58:57;;;;;;;39.25;21.13;;;;;;;13.47;100.00;99820.16;5062857;28;20501;-74
2022/10/21 07:01:27;;;;;;;35.28;18.77;;;;;;;13.47;100.00;99811.34;5058339;28;20109;-84
2022/10/21 07:04:08;;;;;;;35.40;20.38;;;;;;;13.50;100.00;99813.78;5051737;28;20597;-79
2022/10/21 07:06:35;;;;;;;31.77;19.20;;;;;;;13.36;100.00;99795.25;5047690;28;20115;-83
2022/10/21 07:09:06;;;;;;;28.45;18.02;;;;;;;13.50;100.00;99830.59;5044946;28;20056;-82
2022/10/21 07:11:32;;;;;;;29.90;17.83;;;;;;;13.23;100.00;99789.91;5054341;28;20040;-79
2022/10/21 07:14:00;;;;;;;37.45;20.15;;;;;;;13.53;100.00;99840.19;5051725;28;20140;-79
2022/10/21 07:16:33;;;;;;;30.73;19.20;;;;;;;13.32;100.00;99808.75;5045559;28;20064;-72
2022/10/21 07:19:00;;;;;;;29.50;18.17;;;;;;;13.48;100.00;99843.16;5048551;28;20053;-80
2022/10/21 07:21:29;;;;;;;32.92;18.90;;;;;;;13.29;100.00;99808.09;5048165;28;20048;-83
2022/10/21 07:23:57;;;;;;;30.33;18.10;;;;;;;13.48;100.00;99837.84;5046263;28;20104;-79
2022/10/21 07:26:26;;;;;;;29.13;18.42;;;;;;;13.44;100.00;99833.66;5047224;28;20053;-83
2022/10/21 07:28:56;;;;;;;27.98;18.20;;;;;;;13.51;100.00;99847.41;5046759;28;20131;-78
2022/10/21 07:31:23;;;;;;;30.05;17.92;;;;;;;13.53;100.00;99849.03;5048779;28;21134;-81
2022/10/21 07:33:50;;;;;;;31.30;19.30;;;;;;;13.42;100.00;99826.75;5050924;28;20416;-77
2022/10/21 07:36:20;;;;;;;28.90;18.10;;;;;;;13.58;100.00;99854.00;5047657;28;20049;-81
2022/10/21 07:38:49;;;;;;;27.23;18.17;;;;;;;13.56;100.00;99854.09;5050810;28;20049;-79
2022/10/21 07:41:20;;;;;;;29.17;17.67;;;;;;;13.61;100.00;99862.63;5052150;28;20486;-80
2022/10/21 07:43:49;;;;;;;26.50;17.60;;;;;;;13.59;100.00;99856.56;5049162;28;20099;-80
2022/10/21 07:46:18;;;;;;;27.20;17.38;;;;;;;13.64;100.00;99861.59;5043034;28;20064;-79
2022/10/21 07:48:46;;;;;;;28.23;18.95;;;;;;;13.66;100.00;99865.84;5040676;28;20052;-73
2022/10/21 07:51:16;;;;;;;28.08;17.55;;;;;;;13.57;100.00;99853.16;5040388;28;20107;-78
2022/10/21 07:53:48;;;;;;;31.90;18.45;;;;;;;13.75;100.00;99876.81;5043546;28;20107;-80
2022/10/21 07:56:20;;;;;;;31.40;17.42;;;;;;;13.80;100.00;99869.38;5044511;28;20056;-81
2022/10/21 07:58:47;;;;;;;30.35;17.98;;;;;;;13.83;100.00;99875.34;5045152;28;20048;-82
2022/10/21 08:01:15;;;;;;;34.53;18.65;;;;;;;13.80;100.00;99866.72;5056730;28;20033;-75
2022/10/21 08:03:43;;;;;;;25.58;17.02;;;;;;;13.82;100.00;99878.97;5054119;28;20040;-79
2022/10/21 08:06:11;;;;;;;27.58;17.20;;;;;;;13.77;100.00;99865.09;5049745;28;20060;-80
2022/10/21 08:08:38;;;;;;;24.48;17.10;;;;;;;13.69;100.00;99870.94;5049475;28;20059;-79
2022/10/21 08:11:06;;;;;;;27.20;18.38;;;;;;;13.50;100.00;99848.38;5038806;28;20107;-80
2022/10/21 08:13:33;;;;;;;30.02;19.15;;;;;;;13.57;100.00;99869.13;5039634;28;20057;-78
2022/10/21 08:16:00;;;;;;;28.48;17.88;;;;;;;13.55;100.00;99860.38;5044091;28;20084;-78
2022/10/21 08:18:28;;;;;;;32.63;19.13;;;;;;;13.55;100.00;99863.03;5046706;28;20136;-77
2022/10/21 08:20:54;;;;;;;31.90;18.30;;;;;;;13.41;100.00;99825.03;5043660;28;20071;-76
2022/10/21 08:23:23;;;;;;;26.92;16.58;;;;;;;13.65;100.00;99864.16;5041379;28;20045;-75
2022/10/21 08:25:52;;;;;;;35.60;18.95;;;;;;;13.68;100.00;99868.41;5042292;28;20045;-75
2022/10/21 08:28:22;;;;;;;27.90;18.10;;;;;;;13.66;100.00;99860.53;5041194;28;20551;-77
2022/10/21 08:30:48;;;;;;;29.55;18.80;;;;;;;13.64;100.00;99857.13;5040318;28;20143;-76
2022/10/21 08:33:15;;;;;;;31.23;19.42;;;;;;;13.65;100.00;99856.16;5046615;28;20048;-78
2022/10/21 08:35:42;;;;;;;28.55;19.92;;;;;;;13.63;100.00;99857.22;5044770;28;20056;-78
2022/10/21 08:38:09;;;;;;;29.67;18.88;;;;;;;13.56;100.00;99853.25;5044221;28;20059;-77
2022/10/21 08:40:46;;;;;;;30.77;19.52;;;;;;;13.62;100.00;99856.38;5041813;28;20056;-76
2022/10/21 08:43:24;;;;;;;30.60;19.00;;;;;;;13.54;100.00;99834.75;5047003;28;20461;-78
2022/10/21 08:46:12;;;;;;;32.38;19.40;;;;;;;13.61;100.00;99854.66;5045854;28;20045;-77
2022/10/21 08:48:46;;;;;;;35.03;20.75;;;;;;;13.52;100.00;99826.03;5046568;28;20049;-79
2022/10/21 08:51:27;;;;;;;33.50;20.88;;;;;;;13.63;100.00;99851.91;5041849;28;20049;-76
2022/10/21 08:53:59;;;;;;;35.17;21.73;;;;;;;13.66;100.00;99855.22;5043699;28;20076;-77
2022/10/21 08:56:29;;;;;;;36.92;21.88;;;;;;;13.64;100.00;99850.94;5048346;28;20497;-77
2022/10/21 08:58:56;;;;;;;36.77;20.30;;;;;;;13.69;100.00;99852.31;5026559;28;20579;-76
2022/10/21 09:01:39;;;;;;;34.67;20.35;;;;;;;13.73;100.00;99854.78;5039413;28;20413;-76
2022/10/21 09:04:26;;;;;;;36.15;20.90;;;;;;;13.76;100.00;99852.75;5038541;28;20057;-77
2022/10/21 09:07:47;;;;;;;33.95;21.17;;;;;;;13.77;100.00;99842.97;5044844;28;20048;-77
2022/10/21 09:10:25;;;;;;;37.03;21.27;;;;;;;13.80;100.00;99830.31;5029975;28;20063;-76
2022/10/21 09:12:58;;;;;;;37.85;22.27;;;;;;;13.88;100.00;99837.75;5046142;28;20048;-76
2022/10/21 09:15:35;;;;;;;35.85;21.27;;;;;;;13.66;100.00;99819.78;5044537;28;20317;-77
2022/10/21 09:18:13;;;;;;;37.85;21.58;;;;;;;13.87;100.00;99849.34;5051009;28;20052;-78
2022/10/21 09:21:00;;;;;;;46.15;22.10;;;;;;;13.80;100.00;99832.13;5047489;28;20077;-76
2022/10/21 09:23:41;;;;;;;39.17;22.58;;;;;;;13.98;100.00;99857.47;5041492;28;20067;-74
2022/10/21 09:26:31;;;;;;;38.15;21.05;;;;;;;14.00;100.00;99852.88;5041863;28;20053;-76
2022/10/21 09:29:19;;;;;;;45.40;21.95;;;;;;;13.90;100.00;99838.50;5039819;28;20051;-77
2022/10/21 09:31:47;;;;;;;41.00;22.95;;;;;;;13.88;100.00;99830.63;5047562;28;20516;-77
2022/10/21 09:34:44;;;;;;;41.17;22.70;;;;;;;13.91;100.00;99837.53;5045339;28;20056;-78
2022/10/21 09:37:35;;;;;;;41.10;22.65;;;;;;;14.03;100.00;99852.66;5028663;28;20049;-78
2022/10/21 09:40:19;;;;;;;40.60;23.38;;;;;;;14.17;100.00;99871.16;5044005;28;20079;-76
2022/10/21 09:42:49;;;;;;;38.45;22.60;;;;;;;14.17;100.00;99870.31;5047528;28;20053;-74
2022/10/21 09:45:36;;;;;;;;;;;;;;;14.19;100.00;99871.91;5036509;28;20143;-76
2022/10/21 09:48:16;;;;;;;40.17;22.75;;;;;;;14.17;100.00;99868.50;5043402;28;19925;-75
2022/10/21 09:50:49;;;;;;;36.10;22.50;;;;;;;14.23;100.00;99868.09;5047424;28;20760;-76
2022/10/21 09:53:23;;;;;;;38.72;23.27;;;;;;;14.28;100.00;99871.28;5042315;28;20048;-76
2022/10/21 09:56:00;;;;;;;45.03;24.17;;;;;;;14.30;100.00;99865.88;5043810;28;20460;-77
2022/10/21 09:59:10;;;;;;;41.55;23.50;;;;;;;14.34;100.00;99865.50;5043608;28;20152;-77
2022/10/21 10:01:38;;;;;;;38.50;22.98;;;;;;;14.38;100.00;99859.00;5034686;28;20049;-79
2022/10/21 10:04:24;;;;;;;39.95;23.15;;;;;;;14.48;100.00;99856.56;5036562;28;20071;-76
2022/10/21 10:06:51;;;;;;;39.13;22.27;;;;;;;14.60;100.00;99865.53;5041137;28;20436;-76
2022/10/21 10:09:18;;;;;;;31.40;19.92;;;;;;;14.66;100.00;99876.56;5040978;28;20067;-76
2022/10/21 10:11:48;;;;;;;34.45;21.27;;;;;;;14.73;100.00;99874.31;5038524;28;20137;-76
2022/10/21 10:14:23;;;;;;;33.17;19.75;;;;;;;14.75;100.00;99859.09;5043191;28;20128;-76
2022/10/21 10:16:50;;;;;;;28.20;19.05;;;;;;;14.83;100.00;99867.34;5040451;28;20098;-78
2022/10/21 10:19:27;;;;;;;31.95;18.70;;;;;;;14.80;100.00;99856.91;5044789;28;20049;-77
2022/10/21 10:22:15;;;;;;;27.23;16.63;;;;;;;14.88;100.00;99875.03;5043924;28;20048;-77
2022/10/21 10:24:44;;;;;;;23.23;14.65;;;;;;;14.86;100.00;99869.81;5037179;28;20075;-76
2022/10/21 10:27:22;;;;;;;21.30;14.98;;;;;;;14.90;100.00;99883.75;5041371;28;20385;-76
2022/10/21 10:29:53;;;;;;;20.63;13.60;;;;;;;14.93;100.00;99884.41;5039085;28;20036;-76
2022/10/21 10:32:23;;;;;;;21.20;13.43;;;;;;;14.94;100.00;99885.25;5044025;28;20057;-77
2022/10/21 10:34:50;;;;;;;17.15;10.90;;;;;;;14.84;100.00;99874.38;5032369;28;20568;-76
2022/10/21 10:37:20;;;;;;;20.38;12.48;;;;;;;14.88;100.00;99886.53;5038119;28;20401;-76
2022/10/21 10:39:51;;;;;;;16.85;10.98;;;;;;;14.88;100.00;99888.34;5037615;28;20493;-76
2022/10/21 10:42:21;;;;;;;15.82;10.48;;;;;;;14.81;100.00;99871.94;5038824;28;20094;-77
2022/10/21 10:44:52;;;;;;;14.15;10.35;;;;;;;14.93;100.00;99894.22;5040558;28;20053;-76
2022/10/21 10:47:27;;;;;;;13.68;10.20;;;;;;;14.94;100.00;99887.91;5041656;28;20493;-76
2022/10/21 10:49:54;;;;;;;16.13;11.18;;;;;;;14.95;100.00;99887.78;5038617;28;20147;-76
2022/10/21 10:52:23;;;;;;;14.05;10.15;;;;;;;14.93;100.00;99870.22;5041927;28;20584;-81
2022/10/21 10:55:13;;;;;;;12.82;10.10;;;;;;;15.03;100.00;99877.41;5034625;28;20724;-77
2022/10/21 10:57:44;;;;;;;14.75;10.23;;;;;;;15.05;100.00;99872.84;5042846;28;20053;-78
2022/10/21 11:00:36;;;;;;;10.88;8.15;;;;;;;15.09;100.00;99868.97;5043358;28;20041;-78
2022/10/21 11:03:06;;;;;;;11.50;7.97;;;;;;;14.99;100.00;99851.09;5036440;28;20137;-77
2022/10/21 11:05:49;;;;;;;11.95;8.10;;;;;;;15.08;100.00;99858.41;5037644;28;20061;-78
2022/10/21 11:08:23;;;;;;;14.35;9.00;;;;;;;15.08;100.00;99848.59;5043191;28;20041;-78
2022/10/21 11:10:56;;;;;;;11.23;8.30;;;;;;;15.04;100.00;99830.28;5043433;28;20044;-77
2022/10/21 11:13:23;;;;;;;11.90;8.68;;;;;;;15.16;100.00;99839.16;5044734;28;20153;-76
2022/10/21 11:15:53;;;;;;;13.20;8.45;;;;;;;15.16;100.00;99831.16;5039287;28;20049;-78
2022/10/21 11:18:29;;;;;;;10.73;7.10;;;;;;;15.08;100.00;99808.59;5036012;28;20042;-77
2022/10/21 11:20:59;;;;;;;9.25;7.35;;;;;;;15.11;100.00;99818.16;5040175;28;20405;-77
2022/10/21 11:23:28;;;;;;;11.23;7.55;;;;;;;15.13;100.00;99810.91;5036906;28;20037;-77
2022/10/21 11:26:35;;;;;;;13.02;8.82;;;;;;;15.15;100.00;99841.00;5041968;28;20056;-77